Terminal Aerodrome Forecast
Issued by NWS

Home | Current Version | Previous Version | Text Only | Print | Product List | Glossary On
Versions: 1 2 3 4 5 6 7 8 9 10 11 12 13 14 15 16 17 18 19 20 21 22 23 24 25 26 27 28 29 30 31 32 33 34 35 36 37 38 39 40 41 42 43 44 45 46 47 48
852
FTUS43 KLOT 102335
TAFGYY
TAF
KGYY 102335Z 1100/1124 18007KT 1SM -SN SCT010 OVC020
      TEMPO 1101/1104 3/4SM -SN BKN010
     FM110400 16008KT 1SM -SN BKN010 OVC020
     FM110900 16010KT 3/4SM -SN BR BKN007 OVC010
      TEMPO 1110/1114 1/2SM SN OVC006
     FM111400 15012G18KT 3/4SM -SN BR OVC007
      TEMPO 1114/1118 1/2SM SN OVC004
     FM111800 18012G18KT 3/4SM -SN BR OVC003
      TEMPO 1118/1122 1/2SM SN VV003=

USA.gov is the U.S. government's official web portal to all federal, state and local government web resources and services.